sensor_id;sensor_type;location;lat;lon;timestamp;temperature;humidity
6822;DHT22;3449;48.728;8.968;2023-02-22T00:00:11;3.90;99.90
6822;DHT22;3449;48.728;8.968;2023-02-22T00:02:48;3.90;99.90
6822;DHT22;3449;48.728;8.968;2023-02-22T00:05:16;3.90;99.90
6822;DHT22;3449;48.728;8.968;2023-02-22T00:07:45;3.90;99.90
6822;DHT22;3449;48.728;8.968;2023-02-22T00:10:14;3.80;99.90
6822;DHT22;3449;48.728;8.968;2023-02-22T00:12:45;3.80;99.90
6822;DHT22;3449;48.728;8.968;2023-02-22T00:15:15;3.80;99.90
6822;DHT22;3449;48.728;8.968;2023-02-22T00:17:42;3.70;99.90
6822;DHT22;3449;48.728;8.968;2023-02-22T00:20:10;3.70;99.90
6822;DHT22;3449;48.728;8.968;2023-02-22T00:22:39;3.70;99.90
6822;DHT22;3449;48.728;8.968;2023-02-22T00:25:07;3.70;99.90
6822;DHT22;3449;48.728;8.968;2023-02-22T00:27:35;3.70;99.90
6822;DHT22;3449;48.728;8.968;2023-02-22T00:30:03;3.60;99.90
6822;DHT22;3449;48.728;8.968;2023-02-22T00:32:30;3.60;99.90
6822;DHT22;3449;48.728;8.968;2023-02-22T00:34:57;3.60;99.90
6822;DHT22;3449;48.728;8.968;2023-02-22T00:37:24;3.70;99.90
6822;DHT22;3449;48.728;8.968;2023-02-22T00:39:51;3.60;99.90
6822;DHT22;3449;48.728;8.968;2023-02-22T00:42:18;3.60;99.90
6822;DHT22;3449;48.728;8.968;2023-02-22T00:44:46;3.60;99.90
6822;DHT22;3449;48.728;8.968;2023-02-22T00:47:13;3.60;99.90
6822;DHT22;3449;48.728;8.968;2023-02-22T00:49:40;3.60;99.90
6822;DHT22;3449;48.728;8.968;2023-02-22T00:52:06;3.60;99.90
6822;DHT22;3449;48.728;8.968;2023-02-22T00:54:33;3.60;99.90
6822;DHT22;3449;48.728;8.968;2023-02-22T00:57:01;3.60;99.90
6822;DHT22;3449;48.728;8.968;2023-02-22T00:59:29;3.60;99.90
6822;DHT22;3449;48.728;8.968;2023-02-22T01:01:58;3.60;99.90
6822;DHT22;3449;48.728;8.968;2023-02-22T01:04:25;3.60;99.90
6822;DHT22;3449;48.728;8.968;2023-02-22T01:06:52;3.60;99.90
6822;DHT22;3449;48.728;8.968;2023-02-22T01:09:20;3.50;99.90
6822;DHT22;3449;48.728;8.968;2023-02-22T01:11:47;3.50;99.90
6822;DHT22;3449;48.728;8.968;2023-02-22T01:14:14;3.50;99.90
6822;DHT22;3449;48.728;8.968;2023-02-22T01:16:42;3.50;99.90
6822;DHT22;3449;48.728;8.968;2023-02-22T01:19:11;3.50;99.90
6822;DHT22;3449;48.728;8.968;2023-02-22T01:21:39;3.40;99.90
6822;DHT22;3449;48.728;8.968;2023-02-22T01:24:06;3.40;99.90
6822;DHT22;3449;48.728;8.968;2023-02-22T01:26:33;3.30;99.90
6822;DHT22;3449;48.728;8.968;2023-02-22T01:29:00;3.30;99.90
6822;DHT22;3449;48.728;8.968;2023-02-22T01:31:27;3.30;99.90
6822;DHT22;3449;48.728;8.968;2023-02-22T01:33:54;3.30;99.90
6822;DHT22;3449;48.728;8.968;2023-02-22T01:36:22;3.20;99.90
6822;DHT22;3449;48.728;8.968;2023-02-22T01:38:49;3.20;99.90
6822;DHT22;3449;48.728;8.968;2023-02-22T01:41:16;3.20;99.90
6822;DHT22;3449;48.728;8.968;2023-02-22T01:43:43;3.10;99.90
6822;DHT22;3449;48.728;8.968;2023-02-22T01:46:19;3.10;99.90
6822;DHT22;3449;48.728;8.968;2023-02-22T01:48:51;3.10;99.90
6822;DHT22;3449;48.728;8.968;2023-02-22T01:51:23;3.10;99.90
6822;DHT22;3449;48.728;8.968;2023-02-22T01:53:53;3.10;99.90
6822;DHT22;3449;48.728;8.968;2023-02-22T01:56:23;3.00;99.90
6822;DHT22;3449;48.728;8.968;2023-02-22T01:58:56;3.00;99.90
6822;DHT22;3449;48.728;8.968;2023-02-22T02:01:25;3.00;99.90
6822;DHT22;3449;48.728;8.968;2023-02-22T02:03:56;3.00;99.90
6822;DHT22;3449;48.728;8.968;2023-02-22T02:06:26;3.00;99.90
6822;DHT22;3449;48.728;8.968;2023-02-22T02:08:58;3.00;99.90
6822;DHT22;3449;48.728;8.968;2023-02-22T02:11:26;3.00;99.90
6822;DHT22;3449;48.728;8.968;2023-02-22T02:13:55;3.00;99.90
6822;DHT22;3449;48.728;8.968;2023-02-22T02:16:24;3.00;99.90
6822;DHT22;3449;48.728;8.968;2023-02-22T02:18:52;3.00;99.90
6822;DHT22;3449;48.728;8.968;2023-02-22T02:22:06;3.00;99.90
6822;DHT22;3449;48.728;8.968;2023-02-22T02:28:11;3.00;99.90
6822;DHT22;3449;48.728;8.968;2023-02-22T02:31:11;3.10;99.90
6822;DHT22;3449;48.728;8.968;2023-02-22T02:33:48;3.10;99.90
6822;DHT22;3449;48.728;8.968;2023-02-22T02:36:18;3.10;99.90
6822;DHT22;3449;48.728;8.968;2023-02-22T02:38:54;3.10;99.90
6822;DHT22;3449;48.728;8.968;2023-02-22T02:41:26;3.10;99.90
6822;DHT22;3449;48.728;8.968;2023-02-22T02:43:59;3.10;99.90
6822;DHT22;3449;48.728;8.968;2023-02-22T02:46:32;3.00;99.90
6822;DHT22;3449;48.728;8.968;2023-02-22T02:49:06;3.00;99.90
6822;DHT22;3449;48.728;8.968;2023-02-22T02:51:40;3.00;99.90
6822;DHT22;3449;48.728;8.968;2023-02-22T02:54:10;3.00;99.90
6822;DHT22;3449;48.728;8.968;2023-02-22T02:56:39;2.90;99.90
6822;DHT22;3449;48.728;8.968;2023-02-22T02:59:23;2.90;99.90
6822;DHT22;3449;48.728;8.968;2023-02-22T03:02:00;2.90;99.90
6822;DHT22;3449;48.728;8.968;2023-02-22T03:04:44;2.90;99.90
6822;DHT22;3449;48.728;8.968;2023-02-22T03:07:37;2.80;99.90
6822;DHT22;3449;48.728;8.968;2023-02-22T03:10:25;2.80;99.90
6822;DHT22;3449;48.728;8.968;2023-02-22T03:13:02;2.80;99.90
6822;DHT22;3449;48.728;8.968;2023-02-22T03:15:38;2.70;99.90
6822;DHT22;3449;48.728;8.968;2023-02-22T03:18:11;2.70;99.90
6822;DHT22;3449;48.728;8.968;2023-02-22T03:20:47;2.70;99.90
6822;DHT22;3449;48.728;8.968;2023-02-22T03:23:22;2.70;99.90
6822;DHT22;3449;48.728;8.968;2023-02-22T03:25:52;2.80;99.90
6822;DHT22;3449;48.728;8.968;2023-02-22T03:28:24;2.60;99.90
6822;DHT22;3449;48.728;8.968;2023-02-22T03:30:54;2.60;99.90
6822;DHT22;3449;48.728;8.968;2023-02-22T03:33:26;2.70;99.90
6822;DHT22;3449;48.728;8.968;2023-02-22T03:36:02;2.60;99.90
6822;DHT22;3449;48.728;8.968;2023-02-22T03:38:32;2.60;99.90
6822;DHT22;3449;48.728;8.968;2023-02-22T03:41:01;2.50;99.90
6822;DHT22;3449;48.728;8.968;2023-02-22T03:43:33;2.60;99.90
6822;DHT22;3449;48.728;8.968;2023-02-22T03:46:02;2.50;99.90
6822;DHT22;3449;48.728;8.968;2023-02-22T03:48:34;2.50;99.90
6822;DHT22;3449;48.728;8.968;2023-02-22T03:51:05;2.50;99.90
6822;DHT22;3449;48.728;8.968;2023-02-22T03:53:33;2.50;99.90
6822;DHT22;3449;48.728;8.968;2023-02-22T03:56:01;2.50;99.90
6822;DHT22;3449;48.728;8.968;2023-02-22T03:58:31;2.50;99.90
6822;DHT22;3449;48.728;8.968;2023-02-22T04:01:00;2.50;99.90
6822;DHT22;3449;48.728;8.968;2023-02-22T04:03:27;2.50;99.90
6822;DHT22;3449;48.728;8.968;2023-02-22T04:05:53;2.40;99.90
6822;DHT22;3449;48.728;8.968;2023-02-22T04:08:22;2.40;99.90
6822;DHT22;3449;48.728;8.968;2023-02-22T04:10:49;2.40;99.90
6822;DHT22;3449;48.728;8.968;2023-02-22T04:13:16;2.40;99.90
6822;DHT22;3449;48.728;8.968;2023-02-22T04:15:43;2.40;99.90
6822;DHT22;3449;48.728;8.968;2023-02-22T04:18:09;2.40;99.90
6822;DHT22;3449;48.728;8.968;2023-02-22T04:20:36;2.40;99.90
6822;DHT22;3449;48.728;8.968;2023-02-22T04:23:03;2.40;99.90
6822;DHT22;3449;48.728;8.968;2023-02-22T04:25:31;2.40;99.90
6822;DHT22;3449;48.728;8.968;2023-02-22T04:27:58;2.40;99.90
6822;DHT22;3449;48.728;8.968;2023-02-22T04:30:25;2.30;99.90
6822;DHT22;3449;48.728;8.968;2023-02-22T04:32:52;2.30;99.90
6822;DHT22;3449;48.728;8.968;2023-02-22T04:35:19;2.40;99.90
6822;DHT22;3449;48.728;8.968;2023-02-22T04:37:46;2.30;99.90
6822;DHT22;3449;48.728;8.968;2023-02-22T04:40:14;2.30;99.90
6822;DHT22;3449;48.728;8.968;2023-02-22T04:42:43;2.30;99.90
6822;DHT22;3449;48.728;8.968;2023-02-22T04:45:10;2.40;99.90
6822;DHT22;3449;48.728;8.968;2023-02-22T04:47:37;2.40;99.90
6822;DHT22;3449;48.728;8.968;2023-02-22T04:50:05;2.40;99.90
6822;DHT22;3449;48.728;8.968;2023-02-22T04:52:32;2.40;99.90
6822;DHT22;3449;48.728;8.968;2023-02-22T04:54:59;2.40;99.90
6822;DHT22;3449;48.728;8.968;2023-02-22T04:57:25;2.40;99.90
6822;DHT22;3449;48.728;8.968;2023-02-22T04:59:54;2.40;99.90
6822;DHT22;3449;48.728;8.968;2023-02-22T05:02:21;2.50;99.90
6822;DHT22;3449;48.728;8.968;2023-02-22T05:04:48;2.50;99.90
6822;DHT22;3449;48.728;8.968;2023-02-22T05:07:15;2.50;99.90
6822;DHT22;3449;48.728;8.968;2023-02-22T05:09:42;2.50;99.90
6822;DHT22;3449;48.728;8.968;2023-02-22T05:12:09;2.40;99.90
6822;DHT22;3449;48.728;8.968;2023-02-22T05:14:36;2.40;99.90
6822;DHT22;3449;48.728;8.968;2023-02-22T05:17:04;2.40;99.90
6822;DHT22;3449;48.728;8.968;2023-02-22T05:19:31;2.30;99.90
6822;DHT22;3449;48.728;8.968;2023-02-22T05:21:58;2.30;99.90
6822;DHT22;3449;48.728;8.968;2023-02-22T05:24:25;2.30;99.90
6822;DHT22;3449;48.728;8.968;2023-02-22T05:26:52;2.20;99.90
6822;DHT22;3449;48.728;8.968;2023-02-22T05:29:19;2.20;99.90
6822;DHT22;3449;48.728;8.968;2023-02-22T05:31:45;2.30;99.90
6822;DHT22;3449;48.728;8.968;2023-02-22T05:34:14;2.30;99.90
6822;DHT22;3449;48.728;8.968;2023-02-22T05:36:41;2.40;99.90
6822;DHT22;3449;48.728;8.968;2023-02-22T05:39:08;2.30;99.90
6822;DHT22;3449;48.728;8.968;2023-02-22T05:41:35;2.30;99.90
6822;DHT22;3449;48.728;8.968;2023-02-22T05:44:02;2.30;99.90
6822;DHT22;3449;48.728;8.968;2023-02-22T05:46:29;2.30;99.90
6822;DHT22;3449;48.728;8.968;2023-02-22T05:48:56;2.30;99.90
6822;DHT22;3449;48.728;8.968;2023-02-22T05:51:24;2.20;99.90
6822;DHT22;3449;48.728;8.968;2023-02-22T05:53:51;2.30;99.90
6822;DHT22;3449;48.728;8.968;2023-02-22T05:56:24;2.30;99.90
6822;DHT22;3449;48.728;8.968;2023-02-22T05:58:52;2.30;99.90
6822;DHT22;3449;48.728;8.968;2023-02-22T06:01:20;2.40;99.90
6822;DHT22;3449;48.728;8.968;2023-02-22T06:03:47;2.40;99.90
6822;DHT22;3449;48.728;8.968;2023-02-22T06:06:14;2.40;99.90
6822;DHT22;3449;48.728;8.968;2023-02-22T06:08:42;2.40;99.90
6822;DHT22;3449;48.728;8.968;2023-02-22T06:11:09;2.40;99.90
6822;DHT22;3449;48.728;8.968;2023-02-22T06:13:36;2.40;99.90
6822;DHT22;3449;48.728;8.968;2023-02-22T06:16:04;2.30;99.90
6822;DHT22;3449;48.728;8.968;2023-02-22T06:18:31;2.30;99.90
6822;DHT22;3449;48.728;8.968;2023-02-22T06:20:58;2.30;99.90
6822;DHT22;3449;48.728;8.968;2023-02-22T06:23:26;2.20;99.90
6822;DHT22;3449;48.728;8.968;2023-02-22T06:25:54;2.20;99.90
6822;DHT22;3449;48.728;8.968;2023-02-22T06:28:21;2.30;99.90
6822;DHT22;3449;48.728;8.968;2023-02-22T06:30:48;2.20;99.90
6822;DHT22;3449;48.728;8.968;2023-02-22T06:33:15;2.20;99.90
6822;DHT22;3449;48.728;8.968;2023-02-22T06:35:42;2.20;99.90
6822;DHT22;3449;48.728;8.968;2023-02-22T06:38:09;2.20;99.90
6822;DHT22;3449;48.728;8.968;2023-02-22T06:40:36;2.30;99.90
6822;DHT22;3449;48.728;8.968;2023-02-22T06:43:05;2.30;99.90
6822;DHT22;3449;48.728;8.968;2023-02-22T06:45:31;2.30;99.90
6822;DHT22;3449;48.728;8.968;2023-02-22T06:47:58;2.30;99.90
6822;DHT22;3449;48.728;8.968;2023-02-22T06:50:26;2.40;99.90
6822;DHT22;3449;48.728;8.968;2023-02-22T06:52:54;2.40;99.90
6822;DHT22;3449;48.728;8.968;2023-02-22T06:55:23;2.50;99.90
6822;DHT22;3449;48.728;8.968;2023-02-22T06:57:51;2.50;99.90
6822;DHT22;3449;48.728;8.968;2023-02-22T07:00:22;2.60;99.90
6822;DHT22;3449;48.728;8.968;2023-02-22T07:02:50;2.60;99.90
6822;DHT22;3449;48.728;8.968;2023-02-22T07:05:18;2.60;99.90
6822;DHT22;3449;48.728;8.968;2023-02-22T07:07:46;2.70;99.90
6822;DHT22;3449;48.728;8.968;2023-02-22T07:10:19;2.70;99.90
6822;DHT22;3449;48.728;8.968;2023-02-22T07:12:46;2.80;99.90
6822;DHT22;3449;48.728;8.968;2023-02-22T07:15:14;2.90;99.90
6822;DHT22;3449;48.728;8.968;2023-02-22T07:17:44;3.00;99.90
6822;DHT22;3449;48.728;8.968;2023-02-22T07:20:10;3.10;99.90
6822;DHT22;3449;48.728;8.968;2023-02-22T07:22:38;3.20;99.90
6822;DHT22;3449;48.728;8.968;2023-02-22T07:25:06;3.20;99.90
6822;DHT22;3449;48.728;8.968;2023-02-22T07:27:36;3.30;99.90
6822;DHT22;3449;48.728;8.968;2023-02-22T07:30:03;3.40;99.90
6822;DHT22;3449;48.728;8.968;2023-02-22T07:32:31;3.50;99.90
6822;DHT22;3449;48.728;8.968;2023-02-22T07:34:59;3.60;99.90
6822;DHT22;3449;48.728;8.968;2023-02-22T07:37:27;3.80;99.90
6822;DHT22;3449;48.728;8.968;2023-02-22T07:39:54;4.00;99.90
6822;DHT22;3449;48.728;8.968;2023-02-22T07:42:21;4.20;99.90
6822;DHT22;3449;48.728;8.968;2023-02-22T07:44:48;4.40;99.90
6822;DHT22;3449;48.728;8.968;2023-02-22T07:47:15;4.50;99.90
6822;DHT22;3449;48.728;8.968;2023-02-22T07:49:42;4.70;99.90
6822;DHT22;3449;48.728;8.968;2023-02-22T07:52:10;4.90;99.90
6822;DHT22;3449;48.728;8.968;2023-02-22T07:54:37;5.30;99.90
6822;DHT22;3449;48.728;8.968;2023-02-22T07:57:04;5.60;99.90
6822;DHT22;3449;48.728;8.968;2023-02-22T07:59:31;5.80;99.90
6822;DHT22;3449;48.728;8.968;2023-02-22T08:01:59;6.00;99.90
6822;DHT22;3449;48.728;8.968;2023-02-22T08:04:26;6.30;99.90
6822;DHT22;3449;48.728;8.968;2023-02-22T08:06:53;6.50;99.90
6822;DHT22;3449;48.728;8.968;2023-02-22T08:09:21;6.80;99.90
6822;DHT22;3449;48.728;8.968;2023-02-22T08:11:48;7.00;99.90
6822;DHT22;3449;48.728;8.968;2023-02-22T08:14:15;6.90;99.90
6822;DHT22;3449;48.728;8.968;2023-02-22T08:16:42;6.90;99.90
6822;DHT22;3449;48.728;8.968;2023-02-22T08:19:09;6.80;99.90
6822;DHT22;3449;48.728;8.968;2023-02-22T08:21:36;6.80;99.90
6822;DHT22;3449;48.728;8.968;2023-02-22T08:24:04;6.90;99.90
6822;DHT22;3449;48.728;8.968;2023-02-22T08:26:32;7.30;99.90
6822;DHT22;3449;48.728;8.968;2023-02-22T08:28:59;7.60;99.90
6822;DHT22;3449;48.728;8.968;2023-02-22T08:31:26;7.80;99.90
6822;DHT22;3449;48.728;8.968;2023-02-22T08:33:52;8.00;99.90
6822;DHT22;3449;48.728;8.968;2023-02-22T08:36:19;8.10;99.90
6822;DHT22;3449;48.728;8.968;2023-02-22T08:38:46;8.30;99.90
6822;DHT22;3449;48.728;8.968;2023-02-22T08:41:13;8.50;99.90
6822;DHT22;3449;48.728;8.968;2023-02-22T08:43:41;8.80;99.90
6822;DHT22;3449;48.728;8.968;2023-02-22T08:46:08;8.80;99.90
6822;DHT22;3449;48.728;8.968;2023-02-22T08:48:35;9.00;99.90
6822;DHT22;3449;48.728;8.968;2023-02-22T08:51:02;9.00;99.90
6822;DHT22;3449;48.728;8.968;2023-02-22T08:53:29;9.30;99.90
6822;DHT22;3449;48.728;8.968;2023-02-22T08:55:57;9.30;99.90
6822;DHT22;3449;48.728;8.968;2023-02-22T08:58:24;9.10;99.90
6822;DHT22;3449;48.728;8.968;2023-02-22T09:00:52;9.00;99.90
6822;DHT22;3449;48.728;8.968;2023-02-22T09:03:19;9.00;99.90
6822;DHT22;3449;48.728;8.968;2023-02-22T09:05:46;9.10;99.90
6822;DHT22;3449;48.728;8.968;2023-02-22T09:08:14;9.30;99.90
6822;DHT22;3449;48.728;8.968;2023-02-22T09:10:41;9.50;99.90
6822;DHT22;3449;48.728;8.968;2023-02-22T09:13:10;9.70;99.90
6822;DHT22;3449;48.728;8.968;2023-02-22T09:15:37;9.80;99.90
6822;DHT22;3449;48.728;8.968;2023-02-22T09:18:08;10.00;99.90
6822;DHT22;3449;48.728;8.968;2023-02-22T09:20:37;10.10;99.90
6822;DHT22;3449;48.728;8.968;2023-02-22T09:23:05;10.20;99.90
6822;DHT22;3449;48.728;8.968;2023-02-22T09:25:34;10.30;99.90
6822;DHT22;3449;48.728;8.968;2023-02-22T09:28:03;10.40;99.90
6822;DHT22;3449;48.728;8.968;2023-02-22T09:30:32;10.70;99.90
6822;DHT22;3449;48.728;8.968;2023-02-22T09:33:01;10.80;99.90
6822;DHT22;3449;48.728;8.968;2023-02-22T09:35:29;10.90;99.90
6822;DHT22;3449;48.728;8.968;2023-02-22T09:38:01;11.10;99.90
6822;DHT22;3449;48.728;8.968;2023-02-22T09:40:30;11.30;99.90
6822;DHT22;3449;48.728;8.968;2023-02-22T09:43:13;11.50;99.90
6822;DHT22;3449;48.728;8.968;2023-02-22T09:45:56;11.50;99.90
6822;DHT22;3449;48.728;8.968;2023-02-22T09:48:25;11.80;99.90
6822;DHT22;3449;48.728;8.968;2023-02-22T09:50:56;11.80;99.90
6822;DHT22;3449;48.728;8.968;2023-02-22T09:53:29;12.10;99.90
6822;DHT22;3449;48.728;8.968;2023-02-22T09:56:03;12.50;99.90
6822;DHT22;3449;48.728;8.968;2023-02-22T09:58:32;12.60;99.90
6822;DHT22;3449;48.728;8.968;2023-02-22T10:01:12;12.60;99.90
6822;DHT22;3449;48.728;8.968;2023-02-22T10:03:50;12.80;99.90
6822;DHT22;3449;48.728;8.968;2023-02-22T10:06:22;13.00;99.90
6822;DHT22;3449;48.728;8.968;2023-02-22T10:08:51;13.20;99.90
6822;DHT22;3449;48.728;8.968;2023-02-22T10:14:28;13.60;99.90
6822;DHT22;3449;48.728;8.968;2023-02-22T10:17:04;14.00;99.90
6822;DHT22;3449;48.728;8.968;2023-02-22T10:19:35;13.80;99.90
6822;DHT22;3449;48.728;8.968;2023-02-22T10:22:31;13.60;99.90
6822;DHT22;3449;48.728;8.968;2023-02-22T10:25:04;13.60;99.90
6822;DHT22;3449;48.728;8.968;2023-02-22T10:27:36;14.00;99.90
6822;DHT22;3449;48.728;8.968;2023-02-22T10:30:07;14.60;99.90
6822;DHT22;3449;48.728;8.968;2023-02-22T10:32:41;14.90;99.90
6822;DHT22;3449;48.728;8.968;2023-02-22T10:35:17;14.90;99.90
6822;DHT22;3449;48.728;8.968;2023-02-22T10:37:47;15.10;99.90
6822;DHT22;3449;48.728;8.968;2023-02-22T10:40:20;15.30;99.90
6822;DHT22;3449;48.728;8.968;2023-02-22T10:42:57;15.70;99.90
6822;DHT22;3449;48.728;8.968;2023-02-22T10:45:27;16.00;99.90
6822;DHT22;3449;48.728;8.968;2023-02-22T10:47:57;16.10;99.90
6822;DHT22;3449;48.728;8.968;2023-02-22T10:50:26;16.40;99.90
6822;DHT22;3449;48.728;8.968;2023-02-22T10:52:55;16.20;99.90
6822;DHT22;3449;48.728;8.968;2023-02-22T10:55:22;16.00;99.90
6822;DHT22;3449;48.728;8.968;2023-02-22T10:57:50;15.90;99.90
6822;DHT22;3449;48.728;8.968;2023-02-22T11:00:21;15.90;99.90
6822;DHT22;3449;48.728;8.968;2023-02-22T11:02:52;15.90;99.90
6822;DHT22;3449;48.728;8.968;2023-02-22T11:05:28;16.10;99.90
6822;DHT22;3449;48.728;8.968;2023-02-22T11:08:17;16.20;99.90
6822;DHT22;3449;48.728;8.968;2023-02-22T11:10:48;16.20;99.90
6822;DHT22;3449;48.728;8.968;2023-02-22T11:13:17;15.80;99.90
6822;DHT22;3449;48.728;8.968;2023-02-22T11:15:45;15.60;99.90
6822;DHT22;3449;48.728;8.968;2023-02-22T11:18:22;15.40;99.90
6822;DHT22;3449;48.728;8.968;2023-02-22T11:21:04;15.50;99.90
6822;DHT22;3449;48.728;8.968;2023-02-22T11:23:34;15.80;99.90
6822;DHT22;3449;48.728;8.968;2023-02-22T11:26:06;15.30;99.90
6822;DHT22;3449;48.728;8.968;2023-02-22T11:28:34;16.00;99.90
6822;DHT22;3449;48.728;8.968;2023-02-22T11:31:11;16.30;99.90
6822;DHT22;3449;48.728;8.968;2023-02-22T11:33:38;16.30;99.90
6822;DHT22;3449;48.728;8.968;2023-02-22T11:36:11;16.30;99.90
6822;DHT22;3449;48.728;8.968;2023-02-22T11:38:53;16.10;99.90
6822;DHT22;3449;48.728;8.968;2023-02-22T11:41:26;16.40;99.90
6822;DHT22;3449;48.728;8.968;2023-02-22T11:43:53;16.60;99.90
6822;DHT22;3449;48.728;8.968;2023-02-22T11:46:20;16.50;99.90
6822;DHT22;3449;48.728;8.968;2023-02-22T11:48:56;16.50;99.90
6822;DHT22;3449;48.728;8.968;2023-02-22T11:51:33;16.50;99.90
6822;DHT22;3449;48.728;8.968;2023-02-22T11:54:15;16.40;99.90
6822;DHT22;3449;48.728;8.968;2023-02-22T11:56:51;16.50;99.90
6822;DHT22;3449;48.728;8.968;2023-02-22T11:59:26;16.50;99.90
6822;DHT22;3449;48.728;8.968;2023-02-22T12:02:04;16.40;99.90
6822;DHT22;3449;48.728;8.968;2023-02-22T12:04:57;16.20;99.90
6822;DHT22;3449;48.728;8.968;2023-02-22T12:07:35;16.10;99.90
6822;DHT22;3449;48.728;8.968;2023-02-22T12:10:14;16.10;99.90
6822;DHT22;3449;48.728;8.968;2023-02-22T12:13:04;16.10;99.90
6822;DHT22;3449;48.728;8.968;2023-02-22T12:15:40;15.80;99.90
6822;DHT22;3449;48.728;8.968;2023-02-22T12:18:13;16.10;99.90
6822;DHT22;3449;48.728;8.968;2023-02-22T12:20:49;16.20;99.90
6822;DHT22;3449;48.728;8.968;2023-02-22T12:23:21;16.40;99.90
6822;DHT22;3449;48.728;8.968;2023-02-22T12:25:57;16.20;99.90
6822;DHT22;3449;48.728;8.968;2023-02-22T12:28:30;16.10;99.90
6822;DHT22;3449;48.728;8.968;2023-02-22T12:31:06;16.50;99.90
6822;DHT22;3449;48.728;8.968;2023-02-22T12:33:46;16.80;99.90
6822;DHT22;3449;48.728;8.968;2023-02-22T12:36:19;16.60;99.90
6822;DHT22;3449;48.728;8.968;2023-02-22T12:38:53;16.50;99.90
6822;DHT22;3449;48.728;8.968;2023-02-22T12:41:29;16.90;99.90
6822;DHT22;3449;48.728;8.968;2023-02-22T12:44:01;17.00;99.90
6822;DHT22;3449;48.728;8.968;2023-02-22T12:46:33;17.00;99.90
6822;DHT22;3449;48.728;8.968;2023-02-22T12:49:06;16.90;99.90
6822;DHT22;3449;48.728;8.968;2023-02-22T12:51:40;16.70;99.90
6822;DHT22;3449;48.728;8.968;2023-02-22T12:54:15;16.50;99.90
6822;DHT22;3449;48.728;8.968;2023-02-22T12:56:49;16.80;99.90
6822;DHT22;3449;48.728;8.968;2023-02-22T12:59:21;17.10;99.90
6822;DHT22;3449;48.728;8.968;2023-02-22T13:01:53;17.10;99.90
6822;DHT22;3449;48.728;8.968;2023-02-22T13:04:22;17.20;99.90
6822;DHT22;3449;48.728;8.968;2023-02-22T13:07:00;16.90;99.90
6822;DHT22;3449;48.728;8.968;2023-02-22T13:09:49;16.50;99.90
6822;DHT22;3449;48.728;8.968;2023-02-22T13:12:25;16.00;99.90
6822;DHT22;3449;48.728;8.968;2023-02-22T13:15:01;15.60;99.90
6822;DHT22;3449;48.728;8.968;2023-02-22T13:17:37;15.30;99.90
6822;DHT22;3449;48.728;8.968;2023-02-22T13:20:13;15.10;99.90
6822;DHT22;3449;48.728;8.968;2023-02-22T13:22:46;14.80;99.90
6822;DHT22;3449;48.728;8.968;2023-02-22T13:25:17;14.80;99.90
6822;DHT22;3449;48.728;8.968;2023-02-22T13:27:50;14.80;99.90
6822;DHT22;3449;48.728;8.968;2023-02-22T13:30:23;15.00;99.90
6822;DHT22;3449;48.728;8.968;2023-02-22T13:33:19;15.20;99.90
6822;DHT22;3449;48.728;8.968;2023-02-22T13:36:01;15.10;99.90
6822;DHT22;3449;48.728;8.968;2023-02-22T13:41:50;14.90;99.90
6822;DHT22;3449;48.728;8.968;2023-02-22T13:44:57;14.90;99.90
6822;DHT22;3449;48.728;8.968;2023-02-22T13:47:40;14.90;99.90
6822;DHT22;3449;48.728;8.968;2023-02-22T13:50:39;14.80;99.90
6822;DHT22;3449;48.728;8.968;2023-02-22T13:53:11;14.70;99.90
6822;DHT22;3449;48.728;8.968;2023-02-22T13:55:40;14.70;99.90
6822;DHT22;3449;48.728;8.968;2023-02-22T13:58:11;14.50;99.90
6822;DHT22;3449;48.728;8.968;2023-02-22T14:00:45;14.50;99.90
6822;DHT22;3449;48.728;8.968;2023-02-22T14:03:31;14.40;99.90
6822;DHT22;3449;48.728;8.968;2023-02-22T14:06:02;14.60;99.90
6822;DHT22;3449;48.728;8.968;2023-02-22T14:08:43;15.00;99.90
6822;DHT22;3449;48.728;8.968;2023-02-22T14:14:18;15.10;99.90
6822;DHT22;3449;48.728;8.968;2023-02-22T14:17:21;14.80;99.90
6822;DHT22;3449;48.728;8.968;2023-02-22T14:20:20;14.80;99.90
6822;DHT22;3449;48.728;8.968;2023-02-22T14:22:55;14.70;99.90
6822;DHT22;3449;48.728;8.968;2023-02-22T14:25:31;14.50;99.90
6822;DHT22;3449;48.728;8.968;2023-02-22T14:28:00;14.40;99.90
6822;DHT22;3449;48.728;8.968;2023-02-22T14:30:30;14.30;99.90
6822;DHT22;3449;48.728;8.968;2023-02-22T14:32:59;14.20;99.90
6822;DHT22;3449;48.728;8.968;2023-02-22T14:35:33;14.30;99.90
6822;DHT22;3449;48.728;8.968;2023-02-22T14:38:04;14.10;99.90
6822;DHT22;3449;48.728;8.968;2023-02-22T14:40:35;14.00;99.90
6822;DHT22;3449;48.728;8.968;2023-02-22T14:43:06;14.10;99.90
6822;DHT22;3449;48.728;8.968;2023-02-22T14:45:39;14.10;99.90
6822;DHT22;3449;48.728;8.968;2023-02-22T14:48:18;14.10;99.90
6822;DHT22;3449;48.728;8.968;2023-02-22T14:50:51;14.10;99.90
6822;DHT22;3449;48.728;8.968;2023-02-22T14:53:23;14.10;99.90
6822;DHT22;3449;48.728;8.968;2023-02-22T14:55:55;14.00;99.90
6822;DHT22;3449;48.728;8.968;2023-02-22T14:58:28;14.00;99.90
6822;DHT22;3449;48.728;8.968;2023-02-22T15:00:55;13.90;99.90
6822;DHT22;3449;48.728;8.968;2023-02-22T15:03:28;13.90;99.90
6822;DHT22;3449;48.728;8.968;2023-02-22T15:06:03;13.80;99.90
6822;DHT22;3449;48.728;8.968;2023-02-22T15:08:30;13.70;99.90
6822;DHT22;3449;48.728;8.968;2023-02-22T15:10:59;13.50;99.90
6822;DHT22;3449;48.728;8.968;2023-02-22T15:13:28;13.50;99.90
6822;DHT22;3449;48.728;8.968;2023-02-22T15:15:59;13.50;99.90
6822;DHT22;3449;48.728;8.968;2023-02-22T15:18:31;13.50;99.90
6822;DHT22;3449;48.728;8.968;2023-02-22T15:21:05;13.40;99.90
6822;DHT22;3449;48.728;8.968;2023-02-22T15:23:40;13.30;99.90
6822;DHT22;3449;48.728;8.968;2023-02-22T15:26:15;13.20;99.90
6822;DHT22;3449;48.728;8.968;2023-02-22T15:28:42;13.20;99.90
6822;DHT22;3449;48.728;8.968;2023-02-22T15:31:20;13.10;99.90
6822;DHT22;3449;48.728;8.968;2023-02-22T15:33:50;13.10;99.90
6822;DHT22;3449;48.728;8.968;2023-02-22T15:36:22;13.00;99.90
6822;DHT22;3449;48.728;8.968;2023-02-22T15:38:52;12.90;99.90
6822;DHT22;3449;48.728;8.968;2023-02-22T15:41:26;12.80;99.90
6822;DHT22;3449;48.728;8.968;2023-02-22T15:44:03;12.80;99.90
6822;DHT22;3449;48.728;8.968;2023-02-22T15:46:30;12.70;99.90
6822;DHT22;3449;48.728;8.968;2023-02-22T15:49:18;12.70;99.90
6822;DHT22;3449;48.728;8.968;2023-02-22T15:51:48;12.60;99.90
6822;DHT22;3449;48.728;8.968;2023-02-22T15:54:17;12.50;99.90
6822;DHT22;3449;48.728;8.968;2023-02-22T15:56:49;12.50;99.90
6822;DHT22;3449;48.728;8.968;2023-02-22T15:59:20;12.50;99.90
6822;DHT22;3449;48.728;8.968;2023-02-22T16:01:53;12.50;99.90
6822;DHT22;3449;48.728;8.968;2023-02-22T16:04:24;12.40;99.90
6822;DHT22;3449;48.728;8.968;2023-02-22T16:07:01;12.30;99.90
6822;DHT22;3449;48.728;8.968;2023-02-22T16:09:29;12.30;99.90
6822;DHT22;3449;48.728;8.968;2023-02-22T16:12:07;12.20;99.90
6822;DHT22;3449;48.728;8.968;2023-02-22T16:14:40;12.20;99.90
6822;DHT22;3449;48.728;8.968;2023-02-22T16:17:10;12.20;99.90
6822;DHT22;3449;48.728;8.968;2023-02-22T16:19:40;12.10;99.90
6822;DHT22;3449;48.728;8.968;2023-02-22T16:22:25;12.00;99.90
6822;DHT22;3449;48.728;8.968;2023-02-22T16:24:53;12.00;99.90
6822;DHT22;3449;48.728;8.968;2023-02-22T16:27:21;12.00;99.90
6822;DHT22;3449;48.728;8.968;2023-02-22T16:30:16;11.90;99.90
6822;DHT22;3449;48.728;8.968;2023-02-22T16:32:47;11.80;99.90
6822;DHT22;3449;48.728;8.968;2023-02-22T16:35:17;11.80;99.90
6822;DHT22;3449;48.728;8.968;2023-02-22T16:37:44;11.80;99.90
6822;DHT22;3449;48.728;8.968;2023-02-22T16:40:20;11.80;99.90
6822;DHT22;3449;48.728;8.968;2023-02-22T16:42:48;11.70;99.90
6822;DHT22;3449;48.728;8.968;2023-02-22T16:45:16;11.60;99.90
6822;DHT22;3449;48.728;8.968;2023-02-22T16:47:43;11.60;99.90